Time;durP1;ratioP1;P1;durP2;ratioP2;P2;SDS_P1;SDS_P2;PMS_P1;PMS_P2;Temp;Humidity;BMP_temperature;BMP_pressure;BME280_temperature;BME280_humidity;BME280_pressure;Samples;Min_cycle;Max_cycle;Signal;HPM_P1;HPM_P2
2022/02/25 00:00:18;;;;;;;1.10;0.63;;;5.50;99.90;;;;;;5048689;28;20472;-59
2022/02/25 00:02:44;;;;;;;2.07;1.00;;;5.40;99.90;;;;;;5050028;28;20448;-60
2022/02/25 00:05:14;;;;;;;1.00;0.80;;;5.30;99.90;;;;;;5050183;28;20421;-58
2022/02/25 00:07:41;;;;;;;1.00;0.70;;;5.30;99.90;;;;;;5050300;28;20495;-58
2022/02/25 00:10:10;;;;;;;1.00;0.70;;;5.20;99.90;;;;;;5050162;28;20812;-57
2022/02/25 00:12:37;;;;;;;1.30;0.90;;;5.20;99.90;;;;;;5049555;28;20479;-59
2022/02/25 00:15:04;;;;;;;2.33;1.10;;;5.20;99.90;;;;;;5049984;28;20452;-59
2022/02/25 00:17:30;;;;;;;1.33;0.77;;;5.20;99.90;;;;;;5049703;28;20444;-60
2022/02/25 00:19:57;;;;;;;1.40;0.87;;;5.20;99.90;;;;;;5049999;28;20425;-60
2022/02/25 00:22:26;;;;;;;1.63;1.07;;;5.20;99.90;;;;;;5048482;28;20448;-58
2022/02/25 00:24:53;;;;;;;0.80;0.70;;;5.20;99.90;;;;;;5049243;28;20500;-60
2022/02/25 00:27:19;;;;;;;1.97;0.60;;;5.20;99.90;;;;;;5052811;28;20472;-59
2022/02/25 00:29:46;;;;;;;1.00;0.80;;;5.20;99.90;;;;;;5052612;28;20444;-60
2022/02/25 00:32:13;;;;;;;1.20;1.00;;;5.20;99.90;;;;;;5051540;28;20433;-60
2022/02/25 00:34:39;;;;;;;1.10;0.83;;;5.20;99.90;;;;;;5051509;28;20452;-61
2022/02/25 00:37:06;;;;;;;4.10;1.00;;;5.20;99.90;;;;;;5051738;28;20527;-62
2022/02/25 00:39:34;;;;;;;2.63;0.80;;;5.20;99.90;;;;;;5052370;28;20487;-60
2022/02/25 00:42:04;;;;;;;1.37;0.70;;;5.40;99.90;;;;;;5052015;28;20456;-57
2022/02/25 00:44:31;;;;;;;1.37;0.67;;;5.30;99.90;;;;;;5052195;28;20429;-59
2022/02/25 00:46:58;;;;;;;1.63;0.97;;;5.30;99.90;;;;;;5051999;28;20494;-59
2022/02/25 00:49:25;;;;;;;1.00;0.60;;;5.30;99.90;;;;;;5050879;28;20506;-61
2022/02/25 00:51:52;;;;;;;1.80;0.87;;;5.30;99.90;;;;;;5052075;28;20462;-58
2022/02/25 00:54:18;;;;;;;1.53;1.10;;;5.30;99.90;;;;;;5051802;28;20472;-60
2022/02/25 00:56:46;;;;;;;1.00;0.70;;;5.30;99.90;;;;;;5052299;28;20420;-60
2022/02/25 00:59:13;;;;;;;7.77;1.10;;;5.30;99.90;;;;;;5052480;28;20460;-59
2022/02/25 01:01:40;;;;;;;1.23;0.70;;;5.20;99.90;;;;;;5054020;28;20504;-59
2022/02/25 01:04:08;;;;;;;1.23;0.70;;;5.20;99.90;;;;;;5053541;28;20456;-60
2022/02/25 01:06:35;;;;;;;1.43;0.97;;;5.10;99.90;;;;;;5052023;28;20473;-56
2022/02/25 01:09:02;;;;;;;1.60;0.90;;;5.10;99.90;;;;;;5052419;28;20479;-59
2022/02/25 01:11:28;;;;;;;2.00;0.93;;;5.10;99.90;;;;;;5051720;28;20503;-58
2022/02/25 01:13:56;;;;;;;1.60;0.90;;;5.10;99.90;;;;;;5050706;28;20468;-59
2022/02/25 01:16:23;;;;;;;1.90;1.00;;;5.10;99.90;;;;;;5052211;28;20458;-56
2022/02/25 01:18:50;;;;;;;1.67;0.90;;;5.10;99.90;;;;;;5052250;28;20495;-59
2022/02/25 01:21:16;;;;;;;1.00;0.83;;;5.10;99.90;;;;;;5052559;28;20432;-60
2022/02/25 01:23:43;;;;;;;2.80;1.17;;;5.00;99.90;;;;;;5052428;28;20506;-61
2022/02/25 01:26:10;;;;;;;1.00;0.90;;;5.00;99.90;;;;;;5051487;28;20448;-54
2022/02/25 01:28:36;;;;;;;1.03;0.87;;;5.00;99.90;;;;;;5051465;28;20506;-59
2022/02/25 01:31:04;;;;;;;8.40;1.13;;;5.00;99.90;;;;;;5051830;28;20480;-58
2022/02/25 01:33:31;;;;;;;6.93;1.27;;;4.90;99.90;;;;;;5052122;28;20444;-58
2022/02/25 01:36:00;;;;;;;1.67;1.17;;;4.90;99.90;;;;;;5051778;28;20479;-58
2022/02/25 01:38:26;;;;;;;5.53;1.30;;;4.90;99.90;;;;;;5050601;28;20456;-59
2022/02/25 01:40:54;;;;;;;2.50;1.43;;;4.90;99.90;;;;;;5048973;28;20457;-59
2022/02/25 01:43:21;;;;;;;1.20;0.77;;;4.90;99.90;;;;;;5050252;28;20515;-59
2022/02/25 01:45:48;;;;;;;1.53;1.33;;;4.90;99.90;;;;;;5050690;28;20444;-59
2022/02/25 01:48:19;;;;;;;3.50;1.77;;;5.00;99.90;;;;;;5051139;28;20476;-60
2022/02/25 01:50:46;;;;;;;1.10;0.93;;;5.00;99.90;;;;;;5050404;28;20464;-60
2022/02/25 01:53:13;;;;;;;5.73;1.10;;;5.00;99.90;;;;;;5051746;28;20436;-58
2022/02/25 01:55:43;;;;;;;1.30;1.10;;;5.00;99.90;;;;;;5050910;28;20461;-59
2022/02/25 01:58:09;;;;;;;1.40;1.10;;;5.00;99.90;;;;;;5049110;28;20456;-58
2022/02/25 02:00:37;;;;;;;2.70;1.27;;;5.00;99.90;;;;;;5050157;28;20457;-59
2022/02/25 02:03:04;;;;;;;1.47;0.80;;;5.00;99.90;;;;;;5051036;28;20475;-60
2022/02/25 02:05:32;;;;;;;2.60;0.90;;;5.00;99.90;;;;;;5050541;28;20475;-59
2022/02/25 02:07:59;;;;;;;1.60;1.40;;;5.00;99.90;;;;;;5050812;28;20515;-59
2022/02/25 02:10:26;;;;;;;1.70;0.97;;;5.00;99.90;;;;;;5050074;28;20440;-58
2022/02/25 02:12:53;;;;;;;2.77;0.77;;;5.00;99.90;;;;;;5051808;28;20453;-58
2022/02/25 02:15:20;;;;;;;1.20;0.90;;;5.00;99.90;;;;;;5051598;28;20448;-59
2022/02/25 02:17:46;;;;;;;7.43;1.33;;;5.00;99.90;;;;;;5050527;28;20440;-60
2022/02/25 02:20:13;;;;;;;2.63;1.10;;;5.00;99.90;;;;;;5050027;28;20499;-55
2022/02/25 02:22:41;;;;;;;1.43;1.07;;;5.10;99.90;;;;;;5050686;28;20445;-60
2022/02/25 02:25:09;;;;;;;1.20;0.90;;;5.00;99.90;;;;;;5050912;28;20449;-58
2022/02/25 02:30:21;;;;;;;1.67;0.97;;;5.00;99.90;;;;;;5051481;28;20428;-59
2022/02/25 02:32:48;;;;;;;5.53;1.37;;;5.00;99.90;;;;;;5052379;28;20460;-56
2022/02/25 02:35:15;;;;;;;0.87;0.60;;;5.00;99.90;;;;;;5050185;28;20444;-57
2022/02/25 02:37:43;;;;;;;5.60;1.40;;;5.00;99.90;;;;;;5051543;28;20445;-58
2022/02/25 02:40:10;;;;;;;1.97;1.13;;;4.90;99.90;;;;;;5051996;28;20430;-52
2022/02/25 02:42:37;;;;;;;1.50;1.27;;;4.90;99.90;;;;;;5052268;28;20440;-59
2022/02/25 02:45:04;;;;;;;2.37;2.10;;;4.80;99.90;;;;;;5052534;28;20507;-55
2022/02/25 02:47:33;;;;;;;1.80;1.30;;;4.80;99.90;;;;;;5051036;28;20436;-59
2022/02/25 02:50:00;;;;;;;1.93;1.47;;;4.70;99.90;;;;;;5050147;28;20518;-59
2022/02/25 02:52:26;;;;;;;1.47;1.20;;;4.80;99.90;;;;;;5049220;28;20476;-59
2022/02/25 02:54:55;;;;;;;2.93;1.07;;;4.80;99.90;;;;;;5048607;28;20828;-59
2022/02/25 02:57:23;;;;;;;4.90;1.37;;;4.80;99.90;;;;;;5049258;28;20456;-60
2022/02/25 02:59:50;;;;;;;3.20;1.17;;;4.80;99.90;;;;;;5049440;28;20487;-53
2022/02/25 03:02:17;;;;;;;2.90;2.10;;;4.80;99.90;;;;;;5049700;28;20456;-59
2022/02/25 03:04:44;;;;;;;1.87;1.23;;;4.80;99.90;;;;;;5050289;28;20453;-58
2022/02/25 03:07:11;;;;;;;2.17;1.10;;;4.70;99.90;;;;;;5050300;28;20469;-54
2022/02/25 03:09:38;;;;;;;1.97;1.37;;;4.70;99.90;;;;;;5050551;28;20540;-57
2022/02/25 03:12:08;;;;;;;2.10;1.03;;;4.70;99.90;;;;;;5050885;28;20469;-60
2022/02/25 03:14:34;;;;;;;1.70;1.00;;;4.70;99.90;;;;;;5050880;28;20475;-59
2022/02/25 03:17:01;;;;;;;5.37;1.57;;;4.70;99.90;;;;;;5050260;28;20469;-59
2022/02/25 03:19:28;;;;;;;3.03;1.27;;;4.60;99.90;;;;;;5051103;28;20468;-59
2022/02/25 03:21:54;;;;;;;3.80;1.87;;;4.60;99.90;;;;;;5050547;28;20478;-57
2022/02/25 03:24:22;;;;;;;2.67;1.23;;;4.60;99.90;;;;;;5050280;28;20510;-59
2022/02/25 03:26:48;;;;;;;4.60;0.93;;;4.60;99.90;;;;;;5049520;28;20483;-59
2022/02/25 03:29:16;;;;;;;2.80;1.63;;;4.60;99.90;;;;;;5050528;28;20507;-57
2022/02/25 03:31:43;;;;;;;2.73;1.23;;;4.60;99.90;;;;;;5050555;28;20514;-58
2022/02/25 03:34:09;;;;;;;5.20;1.77;;;4.60;99.90;;;;;;5050198;28;20531;-58
2022/02/25 03:36:36;;;;;;;1.73;1.00;;;4.60;99.90;;;;;;5049208;28;20452;-58
2022/02/25 03:39:03;;;;;;;2.57;1.67;;;4.60;99.90;;;;;;5048197;28;20487;-59
2022/02/25 03:41:30;;;;;;;2.20;1.50;;;4.60;99.90;;;;;;5048981;28;20428;-59
2022/02/25 03:43:56;;;;;;;2.80;1.77;;;4.50;99.90;;;;;;5049641;28;20492;-57
2022/02/25 03:46:24;;;;;;;5.47;1.73;;;4.50;99.90;;;;;;5050398;28;20444;-60
2022/02/25 03:48:51;;;;;;;5.10;1.60;;;4.50;99.90;;;;;;5050024;28;20480;-59
2022/02/25 03:51:21;;;;;;;5.23;1.43;;;4.40;99.90;;;;;;5049598;28;20475;-58
2022/02/25 03:53:47;;;;;;;4.87;1.30;;;4.40;99.90;;;;;;5050314;28;20455;-57
2022/02/25 03:56:15;;;;;;;4.07;1.57;;;4.40;99.90;;;;;;5050501;28;20499;-57
2022/02/25 03:58:42;;;;;;;4.43;1.53;;;4.30;99.90;;;;;;5049567;28;20440;-59
2022/02/25 04:01:09;;;;;;;5.50;1.43;;;4.30;99.90;;;;;;5050119;28;20495;-59
2022/02/25 04:03:37;;;;;;;4.50;1.57;;;4.30;99.90;;;;;;5052564;28;20424;-54
2022/02/25 04:06:04;;;;;;;2.53;1.67;;;4.30;99.90;;;;;;5053429;28;20479;-59
2022/02/25 04:08:31;;;;;;;18.23;2.60;;;4.30;99.90;;;;;;5052968;28;20556;-57
2022/02/25 04:10:57;;;;;;;1.40;1.23;;;4.20;99.90;;;;;;5052523;28;20455;-58
2022/02/25 04:13:24;;;;;;;4.67;1.50;;;4.20;99.90;;;;;;5052411;28;20460;-59
2022/02/25 04:15:51;;;;;;;4.40;1.60;;;4.20;99.90;;;;;;5052416;28;20816;-57
2022/02/25 04:18:17;;;;;;;5.20;1.83;;;4.30;99.90;;;;;;5051776;28;20487;-59
2022/02/25 04:20:45;;;;;;;4.50;1.50;;;4.30;99.90;;;;;;5051932;28;20463;-59
2022/02/25 04:23:12;;;;;;;3.73;1.10;;;4.30;99.90;;;;;;5052709;28;20448;-59
2022/02/25 04:25:39;;;;;;;4.33;1.50;;;4.30;99.90;;;;;;5051649;28;20457;-60
2022/02/25 04:28:05;;;;;;;3.53;1.57;;;4.20;99.90;;;;;;5051866;28;20575;-59
2022/02/25 04:30:32;;;;;;;2.53;2.30;;;4.20;99.90;;;;;;5052999;28;20464;-59
2022/02/25 04:32:59;;;;;;;1.70;1.60;;;4.20;99.90;;;;;;5052584;28;20535;-63
2022/02/25 04:35:26;;;;;;;2.50;1.40;;;4.20;99.90;;;;;;5052010;28;20468;-59
2022/02/25 04:37:54;;;;;;;4.10;1.40;;;4.20;99.90;;;;;;5051618;28;20440;-55
2022/02/25 04:40:21;;;;;;;4.93;1.70;;;4.20;99.90;;;;;;5056793;28;20424;-54
2022/02/25 04:42:47;;;;;;;4.33;1.77;;;4.20;99.90;;;;;;5058561;28;20404;-58
2022/02/25 04:45:14;;;;;;;4.73;1.90;;;4.10;99.90;;;;;;5058942;28;20452;-58
2022/02/25 04:47:41;;;;;;;2.30;1.63;;;4.10;99.90;;;;;;5059413;28;20437;-55
2022/02/25 04:50:09;;;;;;;7.83;1.40;;;4.10;99.90;;;;;;5059045;28;20517;-56
2022/02/25 04:52:36;;;;;;;5.83;1.60;;;4.10;99.90;;;;;;5059161;28;20460;-59
2022/02/25 04:55:05;;;;;;;2.07;1.77;;;4.10;99.90;;;;;;5058482;28;20451;-59
2022/02/25 04:57:31;;;;;;;6.73;2.63;;;4.20;99.90;;;;;;5058536;28;20494;-57
2022/02/25 04:59:58;;;;;;;3.80;2.27;;;4.20;99.90;;;;;;5058054;28;20716;-56
2022/02/25 05:02:25;;;;;;;3.43;1.87;;;4.30;99.90;;;;;;5057915;28;20464;-59
2022/02/25 05:04:51;;;;;;;4.47;1.90;;;4.30;99.90;;;;;;5058507;28;20440;-56
2022/02/25 05:07:18;;;;;;;1.80;1.40;;;4.30;99.90;;;;;;5058343;28;20456;-54
2022/02/25 05:09:45;;;;;;;5.43;1.63;;;4.30;99.90;;;;;;5057926;28;20464;-60
2022/02/25 05:12:13;;;;;;;1.60;1.43;;;4.30;99.90;;;;;;5057766;28;20436;-56
2022/02/25 05:20:24;;;;;;;3.47;1.27;;;4.30;99.90;;;;;;5058396;28;20765;-60
2022/02/25 05:22:52;;;;;;;3.30;1.93;;;4.20;99.90;;;;;;5058409;28;20425;-60
2022/02/25 05:25:19;;;;;;;3.67;2.13;;;4.20;99.90;;;;;;5058109;28;20491;-56
2022/02/25 05:27:47;;;;;;;2.33;1.20;;;4.20;99.90;;;;;;5058177;28;20417;-58
2022/02/25 05:30:15;;;;;;;4.63;1.53;;;4.10;99.90;;;;;;5057939;28;20480;-57
2022/02/25 05:32:42;;;;;;;5.60;1.70;;;4.10;99.90;;;;;;5058409;28;20443;-60
2022/02/25 05:35:09;;;;;;;3.07;1.97;;;4.10;99.90;;;;;;5057760;28;20974;-56
2022/02/25 05:37:39;;;;;;;4.20;1.87;;;4.10;99.90;;;;;;5057348;28;20456;-58
2022/02/25 05:40:08;;;;;;;5.43;1.97;;;4.10;99.90;;;;;;5056969;28;20432;-59
2022/02/25 05:42:35;;;;;;;3.17;1.40;;;4.10;99.90;;;;;;5057196;28;20470;-59
2022/02/25 05:45:05;;;;;;;2.83;1.90;;;4.10;99.90;;;;;;5057644;28;20714;-59
2022/02/25 05:47:32;;;;;;;3.70;2.20;;;4.10;99.90;;;;;;5057527;28;20433;-56
2022/02/25 05:49:59;;;;;;;2.50;1.70;;;4.00;99.90;;;;;;5056718;28;20468;-59
2022/02/25 05:52:25;;;;;;;3.10;2.30;;;4.00;99.90;;;;;;5057364;28;20445;-59
2022/02/25 05:54:52;;;;;;;5.13;1.70;;;4.00;99.90;;;;;;5056785;28;20478;-59
2022/02/25 05:57:19;;;;;;;4.90;1.70;;;4.00;99.90;;;;;;5057283;28;20444;-57
2022/02/25 05:59:45;;;;;;;6.93;1.80;;;4.00;99.90;;;;;;5056912;28;20464;-59
2022/02/25 06:02:13;;;;;;;3.57;1.60;;;4.00;99.90;;;;;;5057027;28;20429;-60
2022/02/25 06:04:40;;;;;;;3.30;2.63;;;4.00;99.90;;;;;;5057727;28;20444;-53
2022/02/25 06:07:07;;;;;;;5.90;1.93;;;3.90;99.90;;;;;;5056816;28;20457;-57
2022/02/25 06:09:34;;;;;;;3.13;1.63;;;3.90;99.90;;;;;;5056640;28;20507;-59
2022/02/25 06:12:01;;;;;;;2.00;1.80;;;3.90;99.90;;;;;;5056574;28;20444;-60
2022/02/25 06:14:27;;;;;;;3.37;1.87;;;3.80;99.90;;;;;;5056679;28;20462;-59
2022/02/25 06:16:54;;;;;;;3.30;2.43;;;3.80;99.90;;;;;;5056281;28;20441;-57
2022/02/25 06:19:22;;;;;;;4.00;1.87;;;3.80;99.90;;;;;;5057071;28;20443;-57
2022/02/25 06:21:49;;;;;;;4.10;1.50;;;3.80;99.90;;;;;;5057141;28;20469;-58
2022/02/25 06:24:16;;;;;;;3.37;1.60;;;3.80;99.90;;;;;;5055731;28;20521;-58
2022/02/25 06:26:42;;;;;;;3.20;1.83;;;3.80;99.90;;;;;;5057161;28;20515;-55
2022/02/25 06:29:09;;;;;;;8.50;2.73;;;3.70;99.90;;;;;;5057526;28;20464;-60
2022/02/25 06:31:36;;;;;;;3.23;2.03;;;3.70;99.90;;;;;;5056857;28;20445;-60
2022/02/25 06:34:03;;;;;;;7.43;2.00;;;3.70;99.90;;;;;;5056783;28;20441;-57
2022/02/25 06:36:31;;;;;;;3.47;1.90;;;3.70;99.90;;;;;;5056494;28;20519;-58
2022/02/25 06:38:57;;;;;;;4.00;2.10;;;3.70;99.90;;;;;;5056730;28;20444;-58
2022/02/25 06:41:24;;;;;;;3.43;1.37;;;3.70;99.90;;;;;;5056381;28;20453;-58
2022/02/25 06:43:51;;;;;;;2.47;1.70;;;3.80;99.90;;;;;;5056112;28;20936;-57
2022/02/25 06:46:18;;;;;;;3.13;1.67;;;3.80;99.90;;;;;;5056244;28;20495;-60
2022/02/25 06:48:44;;;;;;;3.67;1.80;;;3.90;99.90;;;;;;5056081;28;20479;-58
2022/02/25 06:51:11;;;;;;;3.87;1.97;;;3.90;99.90;;;;;;5055655;28;20460;-54
2022/02/25 06:53:39;;;;;;;3.67;1.90;;;4.00;99.90;;;;;;5056060;28;20787;-57
2022/02/25 06:56:07;;;;;;;7.27;2.37;;;4.00;99.90;;;;;;5055809;28;20424;-60
2022/02/25 06:58:34;;;;;;;2.37;1.60;;;4.10;99.90;;;;;;5056156;28;20589;-58
2022/02/25 07:01:02;;;;;;;4.10;1.83;;;4.10;99.90;;;;;;5046398;28;20475;-57
2022/02/25 07:03:29;;;;;;;2.73;2.07;;;4.20;99.90;;;;;;5040228;28;20512;-60
2022/02/25 07:05:56;;;;;;;2.33;1.37;;;4.30;99.90;;;;;;5046008;28;20477;-49
2022/02/25 07:08:23;;;;;;;4.87;2.43;;;4.20;99.90;;;;;;5054215;28;20448;-57
2022/02/25 07:10:51;;;;;;;1.57;1.30;;;4.20;99.90;;;;;;5052995;28;20478;-55
2022/02/25 07:13:19;;;;;;;4.87;2.17;;;4.30;99.90;;;;;;5047452;28;20470;-59
2022/02/25 07:15:46;;;;;;;1.53;1.20;;;4.30;99.90;;;;;;5053925;28;20495;-58
2022/02/25 07:18:15;;;;;;;3.47;1.73;;;4.40;99.90;;;;;;5038711;28;20504;-58
2022/02/25 07:20:42;;;;;;;4.30;1.93;;;4.30;99.90;;;;;;5047690;28;20461;-61
2022/02/25 07:23:09;;;;;;;4.40;2.13;;;4.40;99.90;;;;;;5052449;28;20459;-60
2022/02/25 07:25:36;;;;;;;4.80;1.60;;;4.40;99.90;;;;;;5039293;28;20470;-62
2022/02/25 07:28:07;;;;;;;4.30;2.70;;;4.40;99.90;;;;;;5043573;28;20471;-57
2022/02/25 07:30:37;;;;;;;4.30;1.80;;;4.40;99.90;;;;;;5056498;28;20497;-56
2022/02/25 07:33:04;;;;;;;5.50;2.73;;;4.50;99.90;;;;;;5056634;28;20424;-64
2022/02/25 07:35:34;;;;;;;7.67;2.80;;;4.60;99.90;;;;;;5056792;28;20479;-51
2022/02/25 07:38:03;;;;;;;17.13;2.90;;;4.60;99.90;;;;;;5056624;28;20444;-55
2022/02/25 07:40:30;;;;;;;5.13;2.10;;;4.70;99.90;;;;;;5056111;28;20519;-58
2022/02/25 07:42:57;;;;;;;5.90;2.13;;;4.80;99.90;;;;;;5056246;28;20473;-60
2022/02/25 07:45:26;;;;;;;7.13;2.20;;;4.80;99.90;;;;;;5056820;28;20417;-63
2022/02/25 07:47:53;;;;;;;3.90;2.77;;;4.90;99.90;;;;;;5055986;28;20431;-49
2022/02/25 07:50:19;;;;;;;7.20;2.90;;;5.00;99.90;;;;;;5055252;28;20456;-52
2022/02/25 07:52:47;;;;;;;4.50;2.17;;;5.10;99.90;;;;;;5055032;28;20471;-45
2022/02/25 07:55:14;;;;;;;10.80;2.20;;;5.10;99.90;;;;;;5054991;28;20433;-50
2022/02/25 07:57:42;;;;;;;7.30;1.80;;;5.20;99.90;;;;;;5054709;28;20453;-51
2022/02/25 08:00:12;;;;;;;1.93;1.73;;;5.30;99.90;;;;;;5054316;28;20454;-54
2022/02/25 08:02:42;;;;;;;3.37;1.70;;;5.40;99.90;;;;;;5053965;28;20441;-48
2022/02/25 08:05:09;;;;;;;2.37;1.80;;;5.40;99.90;;;;;;5062333;28;20462;-53
2022/02/25 08:07:36;;;;;;;4.73;2.00;;;5.50;99.90;;;;;;5073305;28;20467;-56
2022/02/25 08:10:03;;;;;;;7.33;2.03;;;5.40;99.90;;;;;;5073479;28;20483;-51
2022/02/25 08:12:30;;;;;;;3.13;1.87;;;5.40;99.90;;;;;;5055465;28;20485;-55
2022/02/25 08:14:56;;;;;;;3.87;1.80;;;5.40;99.90;;;;;;5054673;28;20446;-57
2022/02/25 08:17:23;;;;;;;2.40;1.33;;;5.50;99.90;;;;;;5054988;28;20444;-47
2022/02/25 08:19:53;;;;;;;1.50;1.40;;;5.50;99.90;;;;;;5055105;28;20466;-48
2022/02/25 08:22:21;;;;;;;2.53;2.03;;;5.40;99.90;;;;;;5055056;28;20503;-51
2022/02/25 08:24:48;;;;;;;7.63;2.17;;;5.40;99.90;;;;;;5054726;28;20440;-56
2022/02/25 08:27:17;;;;;;;3.90;1.40;;;5.40;99.90;;;;;;5054714;28;20529;-51
2022/02/25 08:29:43;;;;;;;6.73;1.33;;;5.40;99.90;;;;;;5055044;28;20503;-54
2022/02/25 08:32:12;;;;;;;4.57;2.00;;;5.40;99.90;;;;;;5055037;28;20444;-53
2022/02/25 08:34:40;;;;;;;1.60;1.50;;;5.40;99.90;;;;;;5054592;28;20448;-57
2022/02/25 08:37:08;;;;;;;3.97;1.60;;;5.40;99.90;;;;;;5054827;28;20460;-52
2022/02/25 08:39:36;;;;;;;3.00;1.63;;;5.40;99.90;;;;;;5054479;28;20440;-55
2022/02/25 08:42:03;;;;;;;7.13;1.63;;;5.50;99.90;;;;;;5054359;28;20429;-56
2022/02/25 08:44:30;;;;;;;2.33;2.00;;;5.50;99.90;;;;;;5054858;28;20432;-52
2022/02/25 08:46:56;;;;;;;5.63;2.53;;;5.60;99.90;;;;;;5054350;28;20479;-54
2022/02/25 08:49:23;;;;;;;2.53;1.67;;;5.60;99.90;;;;;;5058370;28;20492;-53
2022/02/25 08:51:50;;;;;;;4.70;1.57;;;5.60;99.90;;;;;;5058678;28;20451;-49
2022/02/25 08:54:19;;;;;;;4.00;1.37;;;5.60;99.90;;;;;;5058192;28;20494;-58
2022/02/25 08:56:46;;;;;;;2.03;1.10;;;5.70;99.90;;;;;;5058330;28;20517;-55
2022/02/25 08:59:15;;;;;;;3.83;2.10;;;5.80;99.90;;;;;;5058258;28;20446;-52
2022/02/25 09:01:42;;;;;;;11.60;2.20;;;5.80;99.90;;;;;;5058086;28;20460;-52
2022/02/25 09:04:09;;;;;;;6.40;1.77;;;5.90;99.90;;;;;;5058077;28;20464;-52
2022/02/25 09:06:40;;;;;;;2.17;1.97;;;6.00;99.90;;;;;;5058658;28;20468;-57
2022/02/25 09:09:09;;;;;;;4.30;1.47;;;6.70;99.90;;;;;;5058520;28;20440;-53
2022/02/25 09:11:37;;;;;;;4.90;1.97;;;6.30;99.90;;;;;;5057820;28;20447;-60
2022/02/25 09:14:04;;;;;;;2.73;1.40;;;6.30;99.90;;;;;;5058445;28;20465;-55
2022/02/25 09:16:31;;;;;;;2.40;1.27;;;6.30;99.90;;;;;;5058079;28;20448;-51
2022/02/25 09:18:58;;;;;;;9.93;1.70;;;6.40;99.90;;;;;;5057885;28;20448;-56
2022/02/25 09:21:24;;;;;;;6.20;1.93;;;6.40;99.90;;;;;;5058353;28;20423;-50
2022/02/25 09:23:51;;;;;;;4.40;1.80;;;6.40;99.90;;;;;;5057967;28;20416;-53
2022/02/25 09:26:21;;;;;;;5.00;1.93;;;6.50;99.90;;;;;;5057617;28;20563;-51
2022/02/25 09:28:50;;;;;;;3.23;1.77;;;6.60;99.90;;;;;;5058060;28;20492;-56
2022/02/25 09:31:17;;;;;;;4.20;1.60;;;6.70;99.90;;;;;;5058017;28;20486;-57
2022/02/25 09:33:45;;;;;;;3.07;1.20;;;6.90;99.90;;;;;;5058032;28;20441;-56
2022/02/25 09:36:12;;;;;;;2.60;1.00;;;7.00;99.90;;;;;;5058114;28;20457;-54
2022/02/25 09:38:39;;;;;;;3.73;1.80;;;7.10;99.90;;;;;;5057614;28;20467;-53
2022/02/25 09:41:09;;;;;;;1.50;1.10;;;7.20;99.90;;;;;;5058098;28;20495;-51
2022/02/25 09:43:37;;;;;;;4.23;2.00;;;7.30;99.90;;;;;;5057107;28;20472;-54
2022/02/25 09:46:08;;;;;;;3.00;1.30;;;7.30;99.90;;;;;;5057207;28;20442;-52
2022/02/25 09:48:35;;;;;;;8.30;1.83;;;7.20;99.90;;;;;;5056656;28;20410;-57
2022/02/25 09:51:01;;;;;;;3.50;1.60;;;7.20;99.90;;;;;;5057574;28;20487;-55
2022/02/25 09:53:29;;;;;;;4.20;2.07;;;7.20;99.90;;;;;;5057404;28;20448;-57
2022/02/25 09:55:56;;;;;;;3.00;1.50;;;7.20;99.90;;;;;;5057090;28;20500;-63
2022/02/25 09:58:25;;;;;;;3.07;1.30;;;7.30;99.90;;;;;;5057223;28;20459;-56
2022/02/25 10:00:52;;;;;;;4.00;1.90;;;7.90;99.90;;;;;;5057652;28;20455;-52
2022/02/25 10:03:25;;;;;;;2.90;1.23;;;8.30;99.90;;;;;;5057804;28;20473;-50
2022/02/25 10:05:52;;;;;;;7.10;1.57;;;8.80;99.90;;;;;;5057037;28;20416;-56
2022/02/25 10:08:24;;;;;;;3.60;1.53;;;8.90;99.90;;;;;;5057424;28;20455;-51
2022/02/25 10:10:53;;;;;;;5.13;1.97;;;9.50;99.90;;;;;;5056657;28;20482;-50
2022/02/25 10:13:21;;;;;;;13.33;2.20;;;10.00;99.90;;;;;;5056881;28;20449;-53
2022/02/25 10:15:50;;;;;;;4.40;1.50;;;10.10;99.90;;;;;;5057047;28;20486;-54
2022/02/25 10:18:19;;;;;;;15.73;1.60;;;10.40;99.90;;;;;;5055726;28;20440;-53
2022/02/25 10:20:48;;;;;;;5.50;2.60;;;11.10;99.90;;;;;;5054470;28;20467;-55
2022/02/25 10:23:26;;;;;;;2.40;1.50;;;12.10;97.20;;;;;;5053563;28;20473;-57
2022/02/25 10:25:55;;;;;;;2.60;1.23;;;12.10;94.40;;;;;;5054176;28;20815;-58
2022/02/25 10:28:30;;;;;;;3.23;2.07;;;11.80;92.60;;;;;;5054650;28;20464;-55
2022/02/25 10:31:18;;;;;;;2.17;1.30;;;11.10;92.20;;;;;;5055930;28;20531;-59
2022/02/25 10:33:45;;;;;;;6.40;1.70;;;10.20;94.50;;;;;;5053103;28;20468;-48
2022/02/25 10:36:27;;;;;;;4.80;1.80;;;9.80;96.80;;;;;;5056981;28;20417;-57
2022/02/25 10:39:02;;;;;;;1.30;0.90;;;10.10;96.70;;;;;;5056283;28;20495;-54
2022/02/25 10:41:29;;;;;;;2.53;1.43;;;10.20;94.60;;;;;;5044394;28;20900;-58
2022/02/25 10:43:55;;;;;;;3.60;1.30;;;9.70;96.20;;;;;;5037731;28;20472;-53
2022/02/25 10:46:24;;;;;;;3.70;1.40;;;9.40;98.00;;;;;;5037383;28;20527;-55
2022/02/25 10:48:51;;;;;;;4.67;1.77;;;9.20;98.80;;;;;;5039484;28;20853;-59
2022/02/25 10:51:24;;;;;;;4.67;1.63;;;8.90;99.70;;;;;;5039970;28;20480;-57
2022/02/25 10:53:52;;;;;;;5.80;3.40;;;8.50;99.90;;;;;;5037943;28;20879;-55
2022/02/25 10:56:21;;;;;;;5.67;1.70;;;8.20;99.90;;;;;;5038197;28;20470;-55
2022/02/25 10:58:51;;;;;;;2.90;1.70;;;8.00;99.90;;;;;;5038286;28;20468;-57
2022/02/25 11:01:21;;;;;;;4.70;2.03;;;7.80;99.90;;;;;;5038159;28;20455;-52
2022/02/25 11:04:00;;;;;;;2.30;1.53;;;7.60;99.90;;;;;;5037827;28;20441;-51
2022/02/25 11:06:30;;;;;;;6.50;2.07;;;7.50;99.90;;;;;;5037330;28;20468;-56
2022/02/25 11:08:57;;;;;;;6.20;2.50;;;7.50;99.90;;;;;;5037060;28;20449;-56
2022/02/25 11:11:24;;;;;;;4.30;1.30;;;7.50;99.90;;;;;;5037219;28;20558;-57
2022/02/25 11:13:51;;;;;;;3.37;1.63;;;7.40;99.90;;;;;;5038055;28;20833;-54
2022/02/25 11:16:20;;;;;;;3.47;1.40;;;7.40;99.90;;;;;;5037352;28;20542;-56
2022/02/25 11:18:48;;;;;;;3.37;1.50;;;7.40;99.90;;;;;;5036992;28;20454;-58
2022/02/25 11:21:15;;;;;;;5.73;1.63;;;7.50;99.90;;;;;;5037204;28;20440;-57
2022/02/25 11:23:44;;;;;;;8.73;1.40;;;7.30;99.90;;;;;;5037202;28;20484;-61
2022/02/25 11:26:11;;;;;;;3.97;1.90;;;7.30;99.90;;;;;;5037566;28;20495;-58
2022/02/25 11:28:38;;;;;;;3.37;1.50;;;7.40;99.90;;;;;;5036576;28;20445;-53
2022/02/25 11:31:12;;;;;;;4.43;1.77;;;7.60;99.90;;;;;;5036341;28;20494;-53
2022/02/25 11:33:39;;;;;;;4.87;2.03;;;7.80;99.90;;;;;;5036817;28;20438;-57
2022/02/25 11:36:08;;;;;;;5.10;1.60;;;7.90;99.90;;;;;;5035907;28;20487;-57
2022/02/25 11:38:38;;;;;;;4.63;1.77;;;8.00;99.90;;;;;;5036515;28;20444;-55
2022/02/25 11:41:15;;;;;;;3.87;1.50;;;8.00;99.90;;;;;;5036840;28;20460;-57
2022/02/25 11:43:46;;;;;;;3.90;1.63;;;7.90;99.90;;;;;;5036471;28;20933;-57
2022/02/25 11:46:15;;;;;;;2.50;1.30;;;7.90;99.90;;;;;;5036913;28;20439;-55
2022/02/25 11:48:48;;;;;;;3.40;1.67;;;7.80;99.90;;;;;;5034926;28;20474;-56
2022/02/25 11:51:34;;;;;;;8.23;2.20;;;7.70;99.90;;;;;;5034577;28;20511;-55
2022/02/25 11:54:36;;;;;;;8.67;2.37;;;7.70;99.90;;;;;;5034595;28;20464;-55
2022/02/25 11:57:23;;;;;;;3.63;1.87;;;7.60;99.90;;;;;;5034555;28;20476;-56
2022/02/25 12:00:19;;;;;;;3.77;2.53;;;7.60;99.90;;;;;;5039853;28;20434;-56
2022/02/25 12:03:16;;;;;;;5.67;2.80;;;7.40;99.90;;;;;;5054657;28;20446;-54
2022/02/25 12:05:47;;;;;;;5.80;2.60;;;7.30;99.90;;;;;;5053638;28;20447;-55
2022/02/25 12:08:22;;;;;;;2.63;1.97;;;7.20;99.90;;;;;;5054286;28;20567;-52
2022/02/25 12:10:49;;;;;;;2.93;2.10;;;7.10;99.90;;;;;;5054473;28;20784;-57
2022/02/25 12:13:24;;;;;;;4.60;2.43;;;7.20;99.90;;;;;;5054764;28;20488;-54
2022/02/25 12:15:51;;;;;;;3.37;2.47;;;7.20;99.90;;;;;;5054146;28;20481;-60
2022/02/25 12:18:19;;;;;;;3.07;2.20;;;7.30;99.90;;;;;;5035543;28;20506;-59
2022/02/25 12:20:49;;;;;;;4.27;2.33;;;7.30;99.90;;;;;;5035125;28;20487;-58
2022/02/25 12:23:19;;;;;;;2.67;1.80;;;7.30;99.90;;;;;;5036930;28;20480;-55
2022/02/25 12:25:48;;;;;;;6.53;1.90;;;7.20;99.90;;;;;;5038040;28;20468;-52
2022/02/25 12:28:42;;;;;;;4.20;1.90;;;7.20;99.90;;;;;;5038424;28;20549;-54
2022/02/25 12:31:11;;;;;;;3.87;2.40;;;7.20;99.90;;;;;;5038259;28;20587;-58
2022/02/25 12:33:40;;;;;;;4.50;2.57;;;7.10;99.90;;;;;;5038208;28;20471;-54
2022/02/25 12:36:12;;;;;;;4.67;2.23;;;7.20;99.90;;;;;;5038427;28;20758;-56
2022/02/25 12:38:41;;;;;;;7.07;4.10;;;7.20;99.90;;;;;;5038197;28;20905;-52
2022/02/25 12:41:13;;;;;;;4.17;1.60;;;7.20;99.90;;;;;;5037880;28;20789;-56
2022/02/25 12:43:49;;;;;;;4.17;2.20;;;7.30;99.90;;;;;;5037537;28;20447;-50
2022/02/25 12:46:17;;;;;;;2.67;1.87;;;7.40;99.90;;;;;;5038023;28;20454;-55
2022/02/25 12:48:45;;;;;;;2.00;1.70;;;7.40;99.90;;;;;;5037771;28;20946;-55
2022/02/25 12:51:11;;;;;;;3.00;1.90;;;7.40;99.90;;;;;;5037749;28;20492;-55
2022/02/25 12:53:50;;;;;;;7.23;2.03;;;7.40;99.90;;;;;;5037191;28;20448;-56
2022/02/25 12:56:19;;;;;;;2.27;1.57;;;7.40;99.90;;;;;;5037379;28;20576;-56
2022/02/25 12:58:49;;;;;;;7.97;1.97;;;7.30;99.90;;;;;;5038006;28;20478;-57
2022/02/25 13:01:18;;;;;;;2.20;2.00;;;7.30;99.90;;;;;;5037139;28;20544;-55
2022/02/25 13:03:45;;;;;;;2.27;1.60;;;7.40;99.90;;;;;;5036047;28;20910;-56
2022/02/25 13:06:12;;;;;;;5.73;2.10;;;7.30;99.90;;;;;;5036326;28;20470;-57
2022/02/25 13:08:41;;;;;;;3.53;2.10;;;7.30;99.90;;;;;;5036067;28;20470;-52